Time;durP1;ratioP1;P1;durP2;ratioP2;P2;SDS_P1;SDS_P2;PMS_P1;PMS_P2;Temp;Humidity;BMP_temperature;BMP_pressure;BME280_temperature;BME280_humidity;BME280_pressure;Samples;Min_cycle;Max_cycle;Signal;HPM_P1;HPM_P2
2022/08/25 00:02:00;;;;;;;2.67;2.40;;;;;;;25.21;49.88;101162.78;5030963;28;20110;-78
2022/08/25 00:04:29;;;;;;;5.22;3.00;;;;;;;25.31;49.83;101184.03;5031704;28;20095;-77
2022/08/25 00:06:55;;;;;;;5.40;3.47;;;;;;;25.16;49.94;101159.84;5048981;28;20037;-78
2022/08/25 00:09:29;;;;;;;4.63;2.97;;;;;;;25.31;49.76;101179.41;5047751;28;20045;-77
2022/08/25 00:11:56;;;;;;;4.30;3.35;;;;;;;25.27;49.64;101171.91;5047408;28;20555;-78
2022/08/25 00:14:35;;;;;;;4.55;3.05;;;;;;;25.34;49.51;101184.44;5030776;28;20138;-77
2022/08/25 00:17:03;;;;;;;4.95;3.50;;;;;;;25.33;49.45;101174.59;5048888;28;20099;-76
2022/08/25 00:19:33;;;;;;;4.68;3.05;;;;;;;25.35;49.68;101183.38;5030735;28;20056;-78
2022/08/25 00:22:01;;;;;;;6.95;3.30;;;;;;;25.29;49.54;101176.13;5047413;28;20077;-77
2022/08/25 00:24:28;;;;;;;4.80;3.05;;;;;;;25.29;49.79;101175.25;5047072;28;20083;-77
2022/08/25 00:26:57;;;;;;;4.22;2.45;;;;;;;25.26;49.94;101171.09;5030660;28;20481;-77
2022/08/25 00:29:25;;;;;;;3.55;3.00;;;;;;;25.21;50.13;101179.06;5030575;28;20087;-76
2022/08/25 00:31:53;;;;;;;5.25;3.30;;;;;;;25.11;50.21;101184.97;5046976;28;20049;-77
2022/08/25 00:34:28;;;;;;;3.58;2.78;;;;;;;25.09;50.09;101178.09;5047247;28;20057;-77
2022/08/25 00:36:55;;;;;;;2.88;2.50;;;;;;;24.99;49.86;101162.25;5048196;28;20132;-79
2022/08/25 00:39:23;;;;;;;5.00;3.00;;;;;;;25.06;49.78;101181.25;5030544;28;20345;-78
2022/08/25 00:41:52;;;;;;;6.10;2.78;;;;;;;25.13;50.34;101182.88;5048076;28;20057;-79
2022/08/25 00:44:19;;;;;;;3.22;2.85;;;;;;;25.15;50.34;101185.38;5031777;28;20080;-78
2022/08/25 00:46:53;;;;;;;5.10;2.90;;;;;;;25.14;50.35;101180.97;5045496;28;20049;-77
2022/08/25 00:49:27;;;;;;;3.25;2.80;;;;;;;25.09;50.44;101175.38;5027251;28;20045;-78
2022/08/25 00:52:24;;;;;;;6.32;3.83;;;;;;;25.11;50.24;101175.97;5027763;28;20064;-78
2022/08/25 00:54:58;;;;;;;4.65;3.38;;;;;;;25.15;50.42;101177.22;5009783;28;20061;-79
2022/08/25 00:57:36;;;;;;;3.55;2.75;;;;;;;25.13;50.43;101176.59;5010885;28;20049;-77
2022/08/25 01:00:13;;;;;;;5.18;3.17;;;;;;;24.81;50.23;101132.28;5041898;28;20052;-75
2022/08/25 01:02:40;;;;;;;5.28;2.80;;;;;;;25.00;50.43;101160.38;5029448;28;20057;-77
2022/08/25 01:05:07;;;;;;;5.45;3.15;;;;;;;25.10;50.36;101177.06;5046405;28;20692;-77
2022/08/25 01:07:35;;;;;;;3.92;3.00;;;;;;;24.88;50.57;101142.09;5048040;28;20130;-77
2022/08/25 01:10:03;;;;;;;5.55;3.47;;;;;;;25.07;50.62;101181.00;5029611;28;20110;-78
2022/08/25 01:12:30;;;;;;;4.60;2.65;;;;;;;25.04;50.85;101167.88;5046386;28;20053;-78
2022/08/25 01:14:57;;;;;;;3.83;2.80;;;;;;;24.98;50.90;101162.47;5029675;28;20060;-76
2022/08/25 01:17:26;;;;;;;2.92;2.53;;;;;;;24.91;50.85;101155.22;5028636;28;20073;-77
2022/08/25 01:19:54;;;;;;;3.58;2.97;;;;;;;24.88;51.32;101169.22;5028460;28;20285;-77
2022/08/25 01:22:21;;;;;;;4.88;2.83;;;;;;;24.88;51.04;101185.53;5028107;28;20114;-76
2022/08/25 01:25:26;;;;;;;7.03;3.38;;;;;;;24.85;51.08;101196.81;5027956;28;20424;-76
2022/08/25 01:27:53;;;;;;;9.57;2.97;;;;;;;24.84;51.07;101200.56;5028246;28;20297;-77
2022/08/25 01:30:20;;;;;;;7.60;3.05;;;;;;;24.72;51.43;101175.16;5046301;28;20247;-77
2022/08/25 01:32:47;;;;;;;5.32;3.17;;;;;;;24.54;51.72;101156.88;5029550;28;20075;-78
2022/08/25 01:35:14;;;;;;;7.65;3.22;;;;;;;24.75;51.96;101199.16;5045979;28;20088;-78
2022/08/25 01:37:41;;;;;;;4.47;3.22;;;;;;;24.66;52.07;101186.88;5032053;28;20095;-76
2022/08/25 01:40:08;;;;;;;3.90;3.13;;;;;;;24.66;52.00;101195.00;5028702;28;20263;-77
2022/08/25 01:43:06;;;;;;;4.18;3.20;;;;;;;24.64;51.58;101183.56;5029202;28;20049;-76
2022/08/25 01:45:34;;;;;;;7.90;3.50;;;;;;;24.63;51.77;101187.31;5029512;28;20048;-76
2022/08/25 01:48:01;;;;;;;15.52;3.20;;;;;;;24.65;51.80;101191.47;5015894;28;20131;-76
2022/08/25 01:50:28;;;;;;;5.30;3.28;;;;;;;24.64;51.98;101187.09;5026772;28;20182;-77
2022/08/25 01:53:18;;;;;;;8.48;3.35;;;;;;;24.58;52.12;101179.81;5009010;28;20087;-75
2022/08/25 01:55:50;;;;;;;3.90;3.13;;;;;;;24.53;52.36;101166.88;5008956;28;20101;-77
2022/08/25 01:58:39;;;;;;;3.05;2.70;;;;;;;24.60;52.63;101185.03;5008496;28;20057;-78
2022/08/25 02:01:08;;;;;;;3.30;3.00;;;;;;;24.46;52.60;101154.38;5046221;28;20118;-77
2022/08/25 02:03:37;;;;;;;4.43;3.13;;;;;;;24.58;52.90;101173.56;5045156;28;20061;-78
2022/08/25 02:06:11;;;;;;;7.32;3.45;;;;;;;24.55;53.10;101171.28;5046803;28;20056;-78
2022/08/25 02:08:38;;;;;;;7.90;3.83;;;;;;;24.38;53.30;101151.91;5045310;28;20196;-77
2022/08/25 02:11:10;;;;;;;3.40;3.10;;;;;;;24.45;53.40;101164.38;5028509;28;20135;-77
2022/08/25 02:13:39;;;;;;;3.97;3.35;;;;;;;24.41;53.47;101168.56;5046349;28;20147;-78
2022/08/25 02:16:07;;;;;;;4.63;3.13;;;;;;;23.74;53.33;101064.88;5045189;28;20135;-77
2022/08/25 02:18:33;;;;;;;5.25;3.40;;;;;;;24.31;53.54;101151.91;5045250;28;20131;-77
2022/08/25 02:21:01;;;;;;;5.35;3.00;;;;;;;24.35;52.92;101168.59;5028310;28;20053;-78
2022/08/25 02:23:27;;;;;;;3.72;3.00;;;;;;;24.21;53.11;101141.50;5046388;28;20478;-77
2022/08/25 02:25:56;;;;;;;4.72;2.90;;;;;;;24.31;52.90;101168.19;5028585;28;20049;-77
2022/08/25 02:28:23;;;;;;;5.47;3.67;;;;;;;24.24;53.02;101164.66;5028655;28;20200;-77
2022/08/25 02:30:51;;;;;;;4.25;3.30;;;;;;;24.26;52.92;101160.69;5028434;28;20128;-78
2022/08/25 02:33:25;;;;;;;5.20;3.20;;;;;;;24.33;52.64;101168.81;5029845;28;20500;-77
2022/08/25 02:35:56;;;;;;;3.15;2.55;;;;;;;24.34;52.70;101170.47;5045215;28;20053;-77
2022/08/25 02:38:23;;;;;;;4.38;3.30;;;;;;;24.29;52.27;101167.56;5028765;28;20249;-77
2022/08/25 02:40:51;;;;;;;3.90;2.85;;;;;;;24.29;52.79;101165.69;5028677;28;20454;-78
2022/08/25 02:43:17;;;;;;;3.33;2.95;;;;;;;24.19;52.75;101159.03;5046199;28;20088;-78
2022/08/25 02:45:44;;;;;;;4.43;3.40;;;;;;;24.35;52.76;101180.28;5045241;28;20048;-77
2022/08/25 02:48:11;;;;;;;5.47;2.83;;;;;;;24.35;52.75;101172.16;5032207;28;20058;-78
2022/08/25 02:50:37;;;;;;;4.93;3.05;;;;;;;24.31;52.56;101173.63;5028422;28;20057;-76
2022/08/25 02:53:04;;;;;;;5.70;3.58;;;;;;;24.25;52.97;101158.22;5012345;28;20042;-77
2022/08/25 02:55:31;;;;;;;6.25;3.70;;;;;;;24.21;53.29;101156.97;5028918;28;20053;-76
2022/08/25 02:58:00;;;;;;;4.18;3.25;;;;;;;24.24;53.66;101167.38;5012810;28;20581;-77
2022/08/25 03:00:26;;;;;;;8.32;3.80;;;;;;;24.14;53.93;101150.72;5030713;28;20076;-77
2022/08/25 03:02:53;;;;;;;7.05;3.60;;;;;;;24.21;54.28;101157.78;5045256;28;20061;-77
2022/08/25 03:05:20;;;;;;;4.40;3.63;;;;;;;24.36;54.48;101159.41;5028681;28;20065;-77
2022/08/25 03:07:47;;;;;;;8.60;3.67;;;;;;;23.89;54.20;101095.28;5028668;28;20147;-77
2022/08/25 03:10:17;;;;;;;5.20;3.35;;;;;;;23.95;54.27;101104.44;5028736;28;20045;-78
2022/08/25 03:12:44;;;;;;;6.57;3.25;;;;;;;24.02;54.39;101136.97;5029720;28;20477;-77
2022/08/25 03:15:17;;;;;;;5.68;3.60;;;;;;;24.10;54.79;101155.72;5028598;28;20105;-77
2022/08/25 03:17:44;;;;;;;4.38;3.25;;;;;;;23.86;54.98;101127.41;5028569;28;20147;-76
2022/08/25 03:20:12;;;;;;;5.18;3.47;;;;;;;23.57;55.14;101075.31;5028075;28;20108;-77
2022/08/25 03:22:38;;;;;;;5.03;3.55;;;;;;;24.03;55.37;101153.03;5028422;28;20467;-78
2022/08/25 03:27:51;;;;;;;4.68;3.40;;;;;;;23.91;55.58;101152.03;5029787;28;20111;-77
2022/08/25 03:30:18;;;;;;;8.82;3.55;;;;;;;23.71;55.68;101134.91;5028389;28;20485;-77
2022/08/25 03:32:45;;;;;;;8.70;3.72;;;;;;;23.82;55.92;101169.53;5029468;28;20630;-77
2022/08/25 03:35:12;;;;;;;7.45;4.00;;;;;;;23.78;56.24;101160.97;5028780;28;20046;-76
2022/08/25 03:37:39;;;;;;;7.72;3.75;;;;;;;23.64;56.44;101145.75;5028586;28;20089;-76
2022/08/25 03:40:09;;;;;;;7.20;4.20;;;;;;;23.53;56.59;101125.53;5028504;28;20069;-76
2022/08/25 03:42:43;;;;;;;9.88;3.75;;;;;;;23.79;56.54;101159.97;5029158;28;20150;-75
2022/08/25 03:45:13;;;;;;;10.48;4.07;;;;;;;23.76;56.15;101154.94;5028115;28;20061;-77
2022/08/25 03:47:39;;;;;;;7.43;4.07;;;;;;;23.84;55.99;101153.91;5027660;28;20461;-77
2022/08/25 03:50:09;;;;;;;7.47;3.50;;;;;;;23.94;55.73;101148.88;5027984;28;20053;-77
2022/08/25 03:52:36;;;;;;;8.65;4.63;;;;;;;23.87;55.44;101145.34;5043902;28;20495;-77
2022/08/25 03:55:10;;;;;;;7.53;4.03;;;;;;;23.85;55.44;101153.69;5043756;28;20243;-78
2022/08/25 03:57:37;;;;;;;8.52;4.45;;;;;;;23.75;55.68;101147.03;5044414;28;20045;-76
2022/08/25 04:00:07;;;;;;;6.18;3.88;;;;;;;23.68;55.50;101155.13;5027740;28;20042;-77
2022/08/25 04:02:33;;;;;;;5.57;3.85;;;;;;;23.58;55.96;101144.72;5026972;28;20134;-78
2022/08/25 04:05:00;;;;;;;6.95;3.95;;;;;;;23.23;56.49;101076.38;5027624;28;20085;-77
2022/08/25 04:07:27;;;;;;;8.55;4.00;;;;;;;23.84;55.83;101156.63;5027456;28;20084;-77
2022/08/25 04:09:54;;;;;;;4.72;4.07;;;;;;;23.85;55.57;101158.28;5028672;28;20253;-77
2022/08/25 04:12:22;;;;;;;5.20;4.38;;;;;;;23.77;55.83;101151.19;5028507;28;20057;-78
2022/08/25 04:14:49;;;;;;;8.10;5.00;;;;;;;23.79;55.81;101159.13;5027236;28;20057;-77
2022/08/25 04:17:16;;;;;;;10.02;4.18;;;;;;;23.70;56.31;101149.50;5028765;28;20136;-77
2022/08/25 04:19:43;;;;;;;6.07;4.05;;;;;;;23.60;56.22;101156.19;5025878;28;20054;-78
2022/08/25 04:22:10;;;;;;;7.18;4.15;;;;;;;23.63;56.30;101160.34;5025893;28;20112;-79
2022/08/25 04:24:38;;;;;;;5.65;3.85;;;;;;;23.37;55.79;101131.38;5026335;28;20499;-76
2022/08/25 04:27:05;;;;;;;14.05;3.55;;;;;;;23.60;55.51;101175.16;5025963;28;20049;-78
2022/08/25 04:29:32;;;;;;;6.82;4.20;;;;;;;23.55;55.74;101158.69;5042999;28;20421;-78
2022/08/25 04:31:59;;;;;;;7.85;3.83;;;;;;;23.62;55.08;101167.66;5026390;28;20285;-78
2022/08/25 04:34:27;;;;;;;5.72;3.83;;;;;;;23.62;54.67;101164.94;5026473;28;20100;-75
2022/08/25 04:37:02;;;;;;;4.55;3.58;;;;;;;23.59;54.68;101173.50;5026395;28;20452;-76
2022/08/25 04:39:28;;;;;;;5.90;4.05;;;;;;;23.56;54.61;101164.94;5026203;28;20061;-78
2022/08/25 04:41:55;;;;;;;6.70;3.50;;;;;;;23.46;54.31;101157.22;5025462;28;20141;-75
2022/08/25 04:44:22;;;;;;;6.43;3.53;;;;;;;23.51;54.61;101160.13;5025915;28;20053;-78
2022/08/25 04:46:49;;;;;;;4.13;3.05;;;;;;;23.55;54.47;101172.25;5025603;28;20336;-78
2022/08/25 04:49:15;;;;;;;7.35;3.38;;;;;;;23.44;54.78;101146.59;5026325;28;20050;-77
2022/08/25 04:51:42;;;;;;;10.57;5.88;;;;;;;23.51;54.70;101152.00;5027422;28;20115;-76
2022/08/25 04:54:12;;;;;;;5.43;3.85;;;;;;;23.50;53.63;101147.66;5027928;28;20103;-79
2022/08/25 04:56:40;;;;;;;3.97;3.50;;;;;;;23.60;53.79;101172.44;5026939;28;20049;-77
2022/08/25 04:59:10;;;;;;;3.88;3.35;;;;;;;23.49;54.30;101162.22;5025647;28;20060;-77
2022/08/25 05:01:38;;;;;;;5.28;3.42;;;;;;;23.55;54.68;101169.53;5024907;28;20042;-76
2022/08/25 05:04:07;;;;;;;5.22;3.45;;;;;;;23.58;54.43;101163.69;5025711;28;20528;-78
2022/08/25 05:06:40;;;;;;;7.13;3.60;;;;;;;23.58;54.03;101171.81;5025784;28;20050;-77
2022/08/25 05:09:08;;;;;;;6.15;3.65;;;;;;;23.05;54.17;101074.28;5025408;28;20077;-77
2022/08/25 05:11:36;;;;;;;9.55;3.38;;;;;;;23.49;54.39;101147.84;5025039;28;20049;-77
2022/08/25 05:14:03;;;;;;;4.60;3.72;;;;;;;23.58;54.50;101157.44;5025529;28;20076;-78
2022/08/25 05:16:30;;;;;;;5.50;4.38;;;;;;;23.47;54.72;101145.34;5024520;28;20111;-78
2022/08/25 05:18:57;;;;;;;4.65;3.85;;;;;;;23.53;54.80;101163.47;5025028;28;20049;-78
2022/08/25 05:21:27;;;;;;;8.18;3.45;;;;;;;23.45;55.07;101134.72;5025037;28;20088;-77
2022/08/25 05:23:56;;;;;;;4.72;3.60;;;;;;;23.29;54.51;101104.50;5025584;28;20127;-76
2022/08/25 05:26:25;;;;;;;4.68;3.78;;;;;;;23.62;54.27;101153.28;5041717;28;20049;-77
2022/08/25 05:28:53;;;;;;;8.45;3.50;;;;;;;23.51;54.33;101146.59;5025180;28;20355;-77
2022/08/25 05:31:22;;;;;;;4.45;3.60;;;;;;;23.41;54.48;101124.50;5026338;28;20048;-77
2022/08/25 05:33:49;;;;;;;7.95;4.13;;;;;;;23.68;54.69;101165.97;5041399;28;20312;-77
2022/08/25 05:36:18;;;;;;;8.63;4.38;;;;;;;23.49;53.51;101099.91;5041101;28;20037;-78
2022/08/25 05:38:46;;;;;;;4.57;3.40;;;;;;;23.80;54.21;101160.78;5026234;28;20110;-78
2022/08/25 05:41:15;;;;;;;6.57;3.67;;;;;;;23.83;54.33;101165.78;5024966;28;20262;-77
2022/08/25 05:43:44;;;;;;;8.02;4.30;;;;;;;23.78;53.79;101168.28;5025681;28;20481;-78
2022/08/25 05:46:12;;;;;;;7.07;4.07;;;;;;;23.80;53.86;101160.78;5024917;28;20127;-78
2022/08/25 05:48:39;;;;;;;6.97;4.03;;;;;;;23.80;53.82;101166.22;5006619;28;20481;-77
2022/08/25 05:51:09;;;;;;;5.97;4.10;;;;;;;23.82;54.37;101173.09;5005990;28;20081;-78
2022/08/25 05:53:38;;;;;;;11.30;4.57;;;;;;;23.91;53.78;101171.00;5004969;28;20540;-78
2022/08/25 05:56:04;;;;;;;6.28;4.47;;;;;;;23.93;53.03;101155.34;5006245;28;20096;-77
2022/08/25 05:58:31;;;;;;;5.20;4.00;;;;;;;23.88;53.43;101163.25;5017684;28;20180;-78
2022/08/25 06:03:46;;;;;;;7.80;4.55;;;;;;;23.92;53.70;101161.81;5006494;28;20042;-78
2022/08/25 06:06:14;;;;;;;4.45;3.92;;;;;;;24.01;53.79;101162.44;5021055;28;20045;-77
2022/08/25 06:08:43;;;;;;;5.70;3.95;;;;;;;23.80;54.10;101120.13;5021288;28;20127;-77
2022/08/25 06:11:11;;;;;;;7.10;4.70;;;;;;;24.13;53.34;101149.03;5020666;28;20070;-77
2022/08/25 06:13:38;;;;;;;8.48;4.22;;;;;;;24.19;53.37;101148.19;5021371;28;20057;-77
2022/08/25 06:16:05;;;;;;;8.10;4.10;;;;;;;24.22;52.89;101132.31;5001304;28;20486;-77
2022/08/25 06:18:32;;;;;;;9.30;5.03;;;;;;;24.30;52.51;101151.09;5001414;28;20140;-77
2022/08/25 06:21:07;;;;;;;9.27;4.53;;;;;;;24.23;52.06;101127.75;4984748;28;20077;-78
2022/08/25 06:23:33;;;;;;;5.20;4.57;;;;;;;24.42;51.01;101137.69;5008287;28;20448;-77
2022/08/25 06:26:00;;;;;;;5.28;4.35;;;;;;;24.41;51.31;101137.88;5005505;28;20537;-77
2022/08/25 06:28:27;;;;;;;7.28;4.70;;;;;;;24.39;51.31;101137.25;5000344;28;20347;-77
2022/08/25 06:30:58;;;;;;;8.82;4.50;;;;;;;24.44;51.33;101135.59;4999882;28;20046;-77
2022/08/25 06:33:25;;;;;;;;;;;;;;;24.44;51.28;101138.31;5006525;28;20045;-77
2022/08/25 06:35:54;;;;;;;7.82;4.38;;;;;;;24.03;51.59;101074.41;5004870;28;20536;-76
2022/08/25 06:38:22;;;;;;;8.63;4.70;;;;;;;24.46;51.74;101138.09;5005777;28;20081;-77
2022/08/25 06:40:50;;;;;;;6.70;4.10;;;;;;;24.48;52.09;101133.31;5006441;28;20108;-77
2022/08/25 06:43:20;;;;;;;14.10;4.97;;;;;;;24.54;51.08;101137.88;5005322;28;20050;-77
2022/08/25 06:45:47;;;;;;;10.90;5.03;;;;;;;24.55;50.92;101108.84;5021854;28;20050;-77
2022/08/25 06:48:14;;;;;;;8.60;4.25;;;;;;;24.54;51.64;101108.03;5001942;28;20201;-77
2022/08/25 06:50:42;;;;;;;8.95;5.20;;;;;;;24.80;51.21;101131.44;4986633;28;20438;-76
2022/08/25 06:53:08;;;;;;;14.45;4.55;;;;;;;24.88;51.34;101136.66;5002365;28;20505;-78
2022/08/25 06:55:35;;;;;;;10.20;4.35;;;;;;;24.52;50.96;101067.53;5003650;28;20093;-79
2022/08/25 06:58:03;;;;;;;7.82;4.63;;;;;;;25.06;50.72;101132.34;5002560;28;20043;-80
2022/08/25 07:00:32;;;;;;;8.75;5.00;;;;;;;24.76;50.67;101075.94;5019950;28;20574;-80
2022/08/25 07:03:00;;;;;;;5.32;4.20;;;;;;;25.06;50.85;101125.03;5034764;28;20131;-80
2022/08/25 07:05:28;;;;;;;7.68;4.15;;;;;;;25.17;51.55;101134.38;5024510;28;20516;-80
2022/08/25 07:08:10;;;;;;;5.13;3.83;;;;;;;25.30;50.37;101128.03;5024842;28;20045;-80
2022/08/25 07:10:37;;;;;;;7.30;3.50;;;;;;;25.33;49.95;101127.56;5025925;28;20045;-80
2022/08/25 07:13:04;;;;;;;7.72;3.97;;;;;;;24.98;49.61;101054.69;5041365;28;20273;-80
2022/08/25 07:15:31;;;;;;;5.43;4.00;;;;;;;25.33;49.31;101089.53;5021887;28;20076;-80
2022/08/25 07:17:57;;;;;;;4.18;3.70;;;;;;;25.50;49.40;101111.56;5007849;28;20107;-81
2022/08/25 07:20:24;;;;;;;6.68;4.20;;;;;;;25.61;49.27;101129.84;5024690;28;20115;-81
2022/08/25 07:22:51;;;;;;;8.98;3.80;;;;;;;25.73;49.09;101133.50;5013890;28;20464;-80
2022/08/25 07:25:18;;;;;;;4.53;4.00;;;;;;;25.67;48.66;101107.19;5026682;28;20046;-80
2022/08/25 07:27:45;;;;;;;5.40;4.05;;;;;;;25.82;48.25;101106.00;5026055;28;20061;-80
2022/08/25 07:30:12;;;;;;;6.32;4.47;;;;;;;26.00;48.36;101125.94;5041280;28;20092;-80
2022/08/25 07:32:38;;;;;;;7.88;4.75;;;;;;;26.13;48.41;101126.84;5040918;28;20045;-81
2022/08/25 07:35:16;;;;;;;5.85;3.85;;;;;;;26.03;48.54;101111.03;5025900;28;20045;-81
2022/08/25 07:37:56;;;;;;;6.10;4.10;;;;;;;26.20;48.42;101124.88;5026232;28;20057;-81
2022/08/25 07:40:30;;;;;;;11.02;4.28;;;;;;;26.20;48.66;101122.97;5027530;28;20049;-82
2022/08/25 07:43:00;;;;;;;5.97;4.18;;;;;;;25.71;48.29;101032.28;5027887;28;20071;-80
2022/08/25 07:45:30;;;;;;;8.32;4.07;;;;;;;26.09;47.83;101082.09;5027855;28;20060;-80
2022/08/25 07:47:59;;;;;;;7.75;4.88;;;;;;;26.49;47.77;101131.41;5044644;28;20053;-80
2022/08/25 07:50:28;;;;;;;6.03;3.95;;;;;;;25.89;48.46;101071.44;5044285;28;20069;-82
2022/08/25 07:52:56;;;;;;;8.48;3.83;;;;;;;26.23;49.42;101121.69;5028608;28;20049;-81
2022/08/25 07:55:25;;;;;;;6.75;4.97;;;;;;;26.32;49.18;101138.56;5028828;28;20056;-81
2022/08/25 07:57:53;;;;;;;10.20;5.03;;;;;;;26.39;48.46;101126.53;5027708;28;20103;-82
2022/08/25 08:00:26;;;;;;;7.75;4.25;;;;;;;26.31;48.54;101117.81;5043544;28;20045;-81
2022/08/25 08:02:53;;;;;;;9.20;4.17;;;;;;;26.46;48.62;101120.16;5027526;28;20057;-82
2022/08/25 08:05:20;;;;;;;7.40;4.53;;;;;;;26.62;48.10;101139.44;5027773;28;20307;-81
2022/08/25 08:07:50;;;;;;;8.35;4.45;;;;;;;26.68;48.35;101139.56;5027645;28;20080;-80
2022/08/25 08:10:17;;;;;;;8.02;4.45;;;;;;;26.73;48.02;101126.94;5027695;28;20056;-80
2022/08/25 08:13:04;;;;;;;6.65;4.45;;;;;;;26.53;48.50;101105.44;5026693;28;20204;-80
2022/08/25 08:15:34;;;;;;;8.95;4.50;;;;;;;26.78;48.17;101124.34;5027535;28;20041;-81
2022/08/25 08:18:01;;;;;;;8.93;5.05;;;;;;;26.86;48.08;101136.81;5027331;28;20100;-80
2022/08/25 08:20:32;;;;;;;11.93;4.70;;;;;;;26.89;48.06;101133.63;5027893;28;20052;-81
2022/08/25 08:23:09;;;;;;;8.82;4.80;;;;;;;26.78;47.98;101093.56;5027438;28;20132;-80
2022/08/25 08:25:36;;;;;;;7.13;5.05;;;;;;;27.12;48.40;101124.69;5028357;28;20041;-81
2022/08/25 08:28:03;;;;;;;6.30;4.90;;;;;;;27.11;48.69;101127.63;5028223;28;20195;-80
2022/08/25 08:30:35;;;;;;;11.73;5.10;;;;;;;26.96;48.71;101103.56;5027227;28;20572;-80
2022/08/25 08:33:04;;;;;;;8.52;5.65;;;;;;;27.14;48.72;101122.56;5026954;28;20061;-80
2022/08/25 08:35:37;;;;;;;9.55;6.00;;;;;;;26.97;49.05;101094.34;5043041;28;20073;-81
2022/08/25 08:38:04;;;;;;;8.05;5.07;;;;;;;27.23;48.97;101117.63;5027140;28;20053;-80
2022/08/25 08:42:15;;;;;;;7.28;5.45;;;;;;;26.71;48.88;101032.94;5026810;28;20053;-79
2022/08/25 08:43:41;;;;;;;7.43;6.20;;;;;;;27.02;49.29;101075.41;5027960;28;20432;-81
2022/08/25 08:46:08;;;;;;;9.10;4.60;;;;;;;27.37;50.29;101123.69;5027247;28;20115;-80
2022/08/25 08:48:57;;;;;;;9.00;6.38;;;;;;;27.30;50.79;101109.34;5026711;28;20269;-80
2022/08/25 08:51:35;;;;;;;10.02;6.88;;;;;;;27.38;50.70;101107.13;5026730;28;20049;-80
2022/08/25 08:54:19;;;;;;;13.90;6.70;;;;;;;27.47;50.80;101118.47;5027252;28;20133;-80
2022/08/25 08:56:54;;;;;;;10.20;6.63;;;;;;;27.26;50.05;101066.22;5026798;28;20509;-80
2022/08/25 08:59:27;;;;;;;9.38;6.95;;;;;;;27.30;50.28;101061.09;5028658;28;20046;-79
2022/08/25 09:02:02;;;;;;;8.60;6.50;;;;;;;27.69;50.07;101113.25;5044412;28;20181;-80
2022/08/25 09:04:56;;;;;;;8.45;6.95;;;;;;;27.80;49.76;101111.63;5027164;28;20333;-80
2022/08/25 09:07:31;;;;;;;10.55;7.57;;;;;;;27.82;50.12;101113.06;5027787;28;20058;-80
2022/08/25 09:09:58;;;;;;;12.55;7.38;;;;;;;27.56;49.95;101056.25;5026406;28;20199;-81
2022/08/25 09:12:32;;;;;;;11.93;7.28;;;;;;;27.97;49.83;101106.28;5029307;28;20223;-80
2022/08/25 09:14:59;;;;;;;16.67;6.60;;;;;;;27.15;49.65;100941.63;5027345;28;20046;-80
2022/08/25 09:17:48;;;;;;;9.95;6.80;;;;;;;28.20;49.33;101097.19;5026235;28;20046;-80
2022/08/25 09:20:39;;;;;;;13.00;7.10;;;;;;;28.26;49.30;101094.34;5026340;28;20401;-80
2022/08/25 09:23:30;;;;;;;8.18;6.35;;;;;;;28.38;49.33;101099.75;5026043;28;20057;-80
2022/08/25 09:26:26;;;;;;;9.93;6.95;;;;;;;28.37;49.07;101072.69;5021911;28;20556;-80
2022/08/25 09:29:05;;;;;;;11.57;6.90;;;;;;;28.14;48.44;101022.59;5006245;28;20046;-81
2022/08/25 09:31:42;;;;;;;10.27;6.70;;;;;;;28.66;47.98;101089.94;5021179;28;20061;-80
2022/08/25 09:34:20;;;;;;;7.75;6.47;;;;;;;28.80;48.10;101085.00;5007483;28;20057;-80
2022/08/25 09:36:51;;;;;;;14.23;7.78;;;;;;;28.59;47.69;101035.44;5007414;28;20046;-80
2022/08/25 09:39:19;;;;;;;18.35;8.43;;;;;;;29.10;47.27;101077.34;5022088;28;20046;-80
2022/08/25 09:41:56;;;;;;;8.98;6.53;;;;;;;29.21;47.15;101072.06;5005832;28;20142;-81
2022/08/25 09:44:41;;;;;;;18.58;6.63;;;;;;;29.38;46.56;101075.59;5022136;28;20050;-80
2022/08/25 09:47:17;;;;;;;10.27;7.25;;;;;;;29.50;45.93;101067.31;5011554;28;20542;-81
2022/08/25 09:49:49;;;;;;;13.73;6.70;;;;;;;29.19;46.10;101010.25;5042144;28;20049;-80
2022/08/25 09:52:31;;;;;;;8.90;5.97;;;;;;;29.85;45.65;101066.97;5041626;28;20049;-81
2022/08/25 09:55:15;;;;;;;16.98;7.43;;;;;;;29.85;45.43;101047.81;5031538;28;20161;-81
2022/08/25 09:57:41;;;;;;;8.27;5.95;;;;;;;29.78;45.34;101009.72;5025188;28;20559;-81
2022/08/25 10:00:32;;;;;;;9.40;6.93;;;;;;;30.21;44.59;101059.22;5024819;28;20053;-81
2022/08/25 10:03:21;;;;;;;15.10;9.52;;;;;;;30.16;44.65;101023.56;5037181;28;20060;-80
2022/08/25 10:06:06;;;;;;;14.85;8.30;;;;;;;29.60;44.17;100930.66;5043200;28;20060;-80
2022/08/25 10:08:44;;;;;;;27.85;13.55;;;;;;;30.55;43.78;101061.81;5029548;28;20214;-81
2022/08/25 10:11:14;;;;;;;61.78;28.38;;;;;;;30.70;43.27;101037.28;5045417;28;20106;-80
2022/08/25 10:13:59;;;;;;;34.42;16.88;;;;;;;30.98;42.78;101054.56;5028632;28;20049;-81
2022/08/25 10:16:33;;;;;;;26.88;15.23;;;;;;;31.00;42.72;101041.41;5029293;28;20067;-80
2022/08/25 10:19:06;;;;;;;23.48;14.30;;;;;;;31.09;42.38;101051.63;5023487;28;20052;-81
2022/08/25 10:21:35;;;;;;;27.52;12.60;;;;;;;31.15;41.71;101049.75;5025819;28;20053;-81
2022/08/25 10:24:04;;;;;;;26.58;13.23;;;;;;;31.09;41.90;101024.22;5008089;28;20045;-81
2022/08/25 10:26:51;;;;;;;25.42;14.10;;;;;;;31.32;41.61;101038.63;5004623;28;20348;-81
2022/08/25 10:29:44;;;;;;;30.52;18.48;;;;;;;31.61;41.03;101052.81;4991546;28;20550;-81
2022/08/25 10:32:17;;;;;;;26.08;15.20;;;;;;;31.88;41.15;101046.34;5025269;28;20310;-81
2022/08/25 10:34:47;;;;;;;24.08;13.52;;;;;;;32.00;40.94;101044.22;5024317;28;20555;-81
2022/08/25 10:37:52;;;;;;;20.30;11.60;;;;;;;31.80;40.56;100978.22;5004421;28;20286;-81
2022/08/25 10:40:43;;;;;;;19.58;13.20;;;;;;;32.35;39.83;101034.44;4988380;28;20567;-81
2022/08/25 10:43:48;;;;;;;26.27;12.40;;;;;;;32.27;39.68;101004.75;5024562;28;20049;-81
2022/08/25 10:46:35;;;;;;;17.90;9.77;;;;;;;32.55;39.78;101018.03;5022088;28;20842;-81
2022/08/25 10:49:02;;;;;;;14.95;8.82;;;;;;;32.71;39.63;101018.03;5003688;28;20042;-81
2022/08/25 10:51:40;;;;;;;11.02;8.88;;;;;;;32.69;38.55;101014.72;5004285;28;20199;-81
2022/08/25 10:55:11;;;;;;;11.63;7.30;;;;;;;32.62;39.36;100992.19;5007676;28;20397;-81
2022/08/25 10:57:45;;;;;;;15.02;8.02;;;;;;;32.77;39.16;101006.75;4935920;28;20518;-81
2022/08/25 11:00:16;;;;;;;11.52;8.00;;;;;;;33.00;38.63;101002.59;5028896;28;20119;-82
2022/08/25 11:02:46;;;;;;;11.60;9.63;;;;;;;33.22;38.45;101009.75;5023773;28;20584;-81
2022/08/25 11:05:27;;;;;;;11.90;7.93;;;;;;;33.38;36.89;101003.13;5023323;28;20053;-80
2022/08/25 11:08:05;;;;;;;19.70;11.68;;;;;;;33.26;36.36;100961.34;5021575;28;20129;-81
2022/08/25 11:11:08;;;;;;;14.40;9.93;;;;;;;33.51;37.27;101006.38;5020248;28;20516;-82
2022/08/25 11:13:46;;;;;;;20.13;13.07;;;;;;;33.50;37.33;101001.97;5007546;28;20060;-81
2022/08/25 11:16:25;;;;;;;31.38;16.08;;;;;;;33.46;37.15;100992.63;5007983;28;20127;-81
2022/08/25 11:19:15;;;;;;;30.95;17.33;;;;;;;33.55;37.25;100996.47;5025634;28;20049;-81
2022/08/25 11:21:45;;;;;;;15.93;10.20;;;;;;;33.67;36.50;100993.41;5015178;28;20154;-81
2022/08/25 11:24:14;;;;;;;13.98;10.30;;;;;;;33.73;36.00;101000.53;5027119;28;20339;-81
2022/08/25 11:26:50;;;;;;;14.20;9.75;;;;;;;33.52;35.57;100925.44;5027210;28;20122;-80
2022/08/25 11:29:31;;;;;;;10.75;9.18;;;;;;;33.92;35.67;100951.16;5023378;28;20459;-80
2022/08/25 11:32:00;;;;;;;11.35;7.10;;;;;;;33.44;35.73;100874.59;5027111;28;20571;-80
2022/08/25 11:34:31;;;;;;;9.77;7.18;;;;;;;33.27;35.88;100828.19;5027111;28;20049;-81
2022/08/25 11:37:07;;;;;;;16.70;7.95;;;;;;;34.20;35.49;100975.25;5028236;28;20060;-81
2022/08/25 11:39:58;;;;;;;10.63;7.65;;;;;;;34.34;35.68;100991.13;5027386;28;20061;-81
2022/08/25 11:42:34;;;;;;;11.82;7.72;;;;;;;34.45;35.23;100988.00;5021981;28;20504;-81
2022/08/25 11:45:27;;;;;;;13.25;7.95;;;;;;;34.40;34.81;100951.41;5027182;28;20061;-81
2022/08/25 11:48:48;;;;;;;10.13;8.02;;;;;;;34.80;34.61;100972.31;5043181;28;20448;-80
2022/08/25 11:51:34;;;;;;;9.10;7.72;;;;;;;35.16;34.44;100974.72;4972725;28;20078;-81